createdAt,value
2023-04-07T00:00:30.416Z,223.18
2023-04-07T00:01:30.542Z,221.93
2023-04-07T00:02:30.552Z,222.37
2023-04-07T00:03:30.613Z,222.86
2023-04-07T00:04:30.624Z,222.80
2023-04-07T00:05:30.520Z,224.78
2023-04-07T00:06:30.532Z,222.48
2023-04-07T00:07:30.587Z,218.19
2023-04-07T00:08:30.617Z,215.06
2023-04-07T00:09:30.651Z,209.52
2023-04-07T00:10:30.696Z,205.67
2023-04-07T00:11:30.722Z,208.71
2023-04-07T00:12:30.749Z,219.31
2023-04-07T00:13:30.942Z,230.82
2023-04-07T00:14:30.827Z,235.49
2023-04-07T00:15:30.876Z,228.04
2023-04-07T00:16:30.901Z,227.90
2023-04-07T00:17:30.966Z,229.56
2023-04-07T00:18:30.981Z,230.91
2023-04-07T00:19:31.024Z,238.63
2023-04-07T00:20:31.038Z,239.91
2023-04-07T00:21:31.055Z,234.78
2023-04-07T00:22:31.106Z,231.46
2023-04-07T00:23:31.172Z,226.55
2023-04-07T00:24:34.187Z,222.06
2023-04-07T00:25:31.195Z,217.65
2023-04-07T00:26:31.217Z,216.50
2023-04-07T00:27:31.176Z,213.33
2023-04-07T00:28:31.166Z,211.27
2023-04-07T00:29:31.167Z,208.48
2023-04-07T00:30:31.173Z,208.60
2023-04-07T00:31:31.221Z,207.27
2023-04-07T00:32:31.168Z,207.11
2023-04-07T00:33:31.145Z,203.51
2023-04-07T00:34:31.135Z,202.23
2023-04-07T00:35:31.132Z,205.72
2023-04-07T00:36:31.132Z,205.14
2023-04-07T00:37:31.121Z,205.54
2023-04-07T00:38:31.111Z,205.52
2023-04-07T00:39:31.090Z,214.27
2023-04-07T00:40:31.118Z,220.04
2023-04-07T00:41:31.106Z,222.45
2023-04-07T00:42:31.090Z,224.19
2023-04-07T00:43:31.060Z,221.22
2023-04-07T00:44:31.053Z,218.26
2023-04-07T00:45:31.230Z,215.00
2023-04-07T00:46:31.157Z,213.82
2023-04-07T00:47:31.045Z,213.60
2023-04-07T00:48:31.042Z,210.75
2023-04-07T00:49:31.027Z,213.82
2023-04-07T00:50:31.019Z,215.66
2023-04-07T00:51:31.024Z,216.26
2023-04-07T00:52:31.019Z,212.74
2023-04-07T00:53:31.004Z,214.19
2023-04-07T00:54:31.013Z,214.02
2023-04-07T00:55:30.984Z,213.01
2023-04-07T00:56:30.995Z,212.35
2023-04-07T00:57:30.977Z,212.25
2023-04-07T00:58:30.954Z,213.29
2023-04-07T00:59:30.950Z,214.73
2023-04-07T01:00:30.976Z,212.18
2023-04-07T01:01:31.083Z,212.87
2023-04-07T01:02:31.111Z,213.70
2023-04-07T01:03:31.185Z,214.83
2023-04-07T01:04:31.090Z,215.11
2023-04-07T01:05:30.933Z,213.37
2023-04-07T01:06:30.921Z,213.66
2023-04-07T01:07:30.895Z,212.78
2023-04-07T01:08:30.889Z,214.71
2023-04-07T01:09:30.895Z,218.66
2023-04-07T01:10:30.921Z,218.90
2023-04-07T01:11:30.937Z,218.67
2023-04-07T01:12:30.925Z,220.60
2023-04-07T01:13:30.978Z,221.59
2023-04-07T01:14:31.002Z,222.60
2023-04-07T01:15:31.072Z,222.93
2023-04-07T01:16:31.197Z,221.62
2023-04-07T01:17:31.136Z,225.64
2023-04-07T01:18:31.126Z,228.78
2023-04-07T01:19:31.159Z,226.45
2023-04-07T01:20:31.213Z,226.25
2023-04-07T01:21:31.240Z,225.26
2023-04-07T01:22:31.279Z,226.14
2023-04-07T01:23:31.319Z,225.05
2023-04-07T01:24:31.350Z,222.06
2023-04-07T01:25:31.370Z,223.33
2023-04-07T01:26:31.406Z,223.13
2023-04-07T01:27:31.400Z,219.81
2023-04-07T01:28:31.409Z,216.79
2023-04-07T01:29:31.424Z,210.61
2023-04-07T01:30:31.523Z,210.28
2023-04-07T01:31:31.559Z,211.01
2023-04-07T01:32:31.574Z,208.19
2023-04-07T01:33:31.576Z,220.41
2023-04-07T01:34:31.620Z,223.35
2023-04-07T01:35:31.639Z,227.01
2023-04-07T01:36:31.759Z,225.29
2023-04-07T01:37:31.703Z,220.36
2023-04-07T01:38:31.752Z,217.50
2023-04-07T01:39:31.793Z,220.42
2023-04-07T01:40:31.851Z,221.40
2023-04-07T01:41:31.914Z,217.64
2023-04-07T01:42:31.924Z,211.31
2023-04-07T01:43:31.974Z,208.00
2023-04-07T01:44:32.006Z,208.50
2023-04-07T01:45:32.047Z,223.52
2023-04-07T01:46:32.110Z,228.71
2023-04-07T01:47:32.177Z,223.84
2023-04-07T01:48:32.140Z,223.22
2023-04-07T01:49:32.171Z,218.34
2023-04-07T01:50:32.207Z,216.71
2023-04-07T01:51:32.226Z,221.66
2023-04-07T01:52:32.274Z,216.86
2023-04-07T01:53:32.316Z,215.93
2023-04-07T01:54:32.347Z,213.23
2023-04-07T01:55:32.425Z,212.17
2023-04-07T01:56:32.426Z,210.81
2023-04-07T01:57:32.449Z,212.54
2023-04-07T01:58:32.510Z,221.67
2023-04-07T01:59:32.529Z,230.52
2023-04-07T02:00:32.571Z,238.54
2023-04-07T02:01:32.679Z,238.02
2023-04-07T02:02:32.711Z,233.91
2023-04-07T02:03:32.768Z,230.63
2023-04-07T02:04:32.702Z,228.21
2023-04-07T02:05:32.777Z,223.09
2023-04-07T02:06:32.788Z,227.01
2023-04-07T02:07:32.829Z,230.15
2023-04-07T02:08:32.861Z,226.78
2023-04-07T02:09:32.901Z,225.79
2023-04-07T02:10:32.960Z,226.52
2023-04-07T02:11:32.981Z,227.83
2023-04-07T02:12:33.007Z,230.48
2023-04-07T02:13:33.050Z,234.37
2023-04-07T02:14:33.106Z,241.84
2023-04-07T02:15:33.186Z,243.52
2023-04-07T02:16:33.214Z,254.34
2023-04-07T02:17:33.225Z,266.09
2023-04-07T02:18:33.225Z,263.30
2023-04-07T02:19:33.271Z,249.76
2023-04-07T02:20:33.315Z,241.41
2023-04-07T02:21:33.333Z,234.48
2023-04-07T02:22:33.375Z,225.20
2023-04-07T02:23:33.416Z,220.67
2023-04-07T02:24:33.495Z,217.44
2023-04-07T02:25:33.560Z,214.60
2023-04-07T02:26:35.268Z,209.86
2023-04-07T02:27:33.600Z,208.04
2023-04-07T02:28:33.623Z,205.72
2023-04-07T02:29:33.721Z,204.99
2023-04-07T02:30:33.691Z,204.35
2023-04-07T02:31:33.740Z,205.71
2023-04-07T02:32:33.778Z,202.82
2023-04-07T02:33:33.775Z,203.57
2023-04-07T02:34:33.819Z,199.93
2023-04-07T02:35:33.883Z,198.67
2023-04-07T02:36:33.944Z,198.02
2023-04-07T02:37:33.945Z,197.62
2023-04-07T02:38:33.973Z,195.85
2023-04-07T02:39:34.038Z,198.59
2023-04-07T02:40:34.102Z,198.47
2023-04-07T02:41:34.122Z,199.94
2023-04-07T02:42:34.151Z,198.29
2023-04-07T02:43:34.174Z,199.36
2023-04-07T02:44:34.219Z,201.79
2023-04-07T02:45:34.354Z,204.33
2023-04-07T02:46:34.410Z,207.43
2023-04-07T02:47:34.361Z,210.96
2023-04-07T02:48:34.396Z,211.39
2023-04-07T02:49:34.454Z,211.02
2023-04-07T02:50:34.559Z,212.40
2023-04-07T02:51:34.557Z,213.31
2023-04-07T02:52:34.574Z,213.02
2023-04-07T02:53:34.605Z,212.51
2023-04-07T02:54:34.628Z,214.28
2023-04-07T02:55:34.726Z,215.29
2023-04-07T02:56:34.738Z,213.42
2023-04-07T02:57:34.767Z,212.63
2023-04-07T02:58:34.817Z,210.43
2023-04-07T02:59:34.864Z,208.88
2023-04-07T03:00:35.299Z,207.41
2023-04-07T03:01:35.026Z,207.42
2023-04-07T03:02:35.110Z,204.77
2023-04-07T03:03:35.078Z,206.17
2023-04-07T03:04:35.025Z,207.78
2023-04-07T03:05:35.106Z,206.47
2023-04-07T03:06:35.100Z,206.38
2023-04-07T03:07:35.173Z,205.00
2023-04-07T03:08:35.199Z,199.89
2023-04-07T03:09:35.243Z,197.79
2023-04-07T03:10:35.315Z,200.49
2023-04-07T03:11:35.355Z,203.66
2023-04-07T03:12:35.388Z,213.33
2023-04-07T03:13:35.438Z,214.28
2023-04-07T03:14:35.479Z,214.36
2023-04-07T03:15:35.514Z,209.75
2023-04-07T03:16:35.601Z,204.22
2023-04-07T03:17:35.713Z,199.32
2023-04-07T03:18:35.634Z,193.25
2023-04-07T03:19:35.682Z,191.69
2023-04-07T03:20:35.728Z,188.31
2023-04-07T03:21:35.756Z,189.76
2023-04-07T03:22:35.787Z,192.93
2023-04-07T03:23:35.825Z,193.19
2023-04-07T03:24:35.857Z,192.36
2023-04-07T03:25:35.887Z,191.15
2023-04-07T03:26:35.921Z,191.90
2023-04-07T03:27:35.917Z,192.90
2023-04-07T03:28:35.983Z,193.78
2023-04-07T03:29:36.018Z,194.23
2023-04-07T03:30:36.073Z,194.02
2023-04-07T03:31:36.062Z,194.29
2023-04-07T03:32:36.079Z,191.57
2023-04-07T03:33:36.102Z,196.48
2023-04-07T03:34:36.144Z,197.94
2023-04-07T03:35:36.227Z,199.23
2023-04-07T03:36:36.227Z,205.68
2023-04-07T03:37:36.260Z,213.93
2023-04-07T03:38:36.322Z,214.28
2023-04-07T03:39:36.306Z,212.06
2023-04-07T03:40:36.345Z,209.85
2023-04-07T03:41:36.408Z,207.77
2023-04-07T03:42:36.416Z,205.31
2023-04-07T03:43:36.456Z,201.69
2023-04-07T03:44:36.482Z,203.61
2023-04-07T03:45:36.565Z,203.48
2023-04-07T03:46:36.650Z,205.73
2023-04-07T03:47:36.633Z,204.95
2023-04-07T03:48:36.643Z,209.61
2023-04-07T03:49:36.679Z,213.01
2023-04-07T03:50:36.753Z,224.64
2023-04-07T03:51:36.767Z,233.33
2023-04-07T03:52:36.771Z,234.10
2023-04-07T03:53:36.818Z,226.56
2023-04-07T03:54:36.894Z,223.25
2023-04-07T03:55:36.931Z,223.57
2023-04-07T03:56:36.926Z,223.16
2023-04-07T03:57:36.965Z,221.30
2023-04-07T03:58:36.989Z,221.69
2023-04-07T03:59:37.024Z,221.29
2023-04-07T04:00:37.116Z,221.35
2023-04-07T04:01:37.152Z,224.89
2023-04-07T04:02:37.177Z,226.15
2023-04-07T04:03:37.315Z,227.69
2023-04-07T04:04:37.205Z,228.06
2023-04-07T04:05:37.199Z,229.60
2023-04-07T04:06:37.253Z,230.48
2023-04-07T04:07:37.242Z,237.05
2023-04-07T04:08:37.248Z,242.89
2023-04-07T04:09:37.293Z,243.78
2023-04-07T04:10:37.355Z,239.61
2023-04-07T04:11:37.380Z,235.84
2023-04-07T04:12:37.372Z,233.33
2023-04-07T04:13:37.434Z,233.34
2023-04-07T04:14:37.471Z,230.39
2023-04-07T04:15:37.586Z,228.46
2023-04-07T04:16:37.500Z,227.72
2023-04-07T04:17:37.559Z,227.68
2023-04-07T04:18:37.599Z,236.94
2023-04-07T04:19:37.620Z,238.99
2023-04-07T04:20:37.661Z,236.74
2023-04-07T04:21:37.705Z,229.98
2023-04-07T04:22:37.732Z,230.79
2023-04-07T04:23:37.745Z,229.70
2023-04-07T04:24:37.773Z,226.63
2023-04-07T04:25:37.838Z,224.49
2023-04-07T04:26:37.844Z,223.10
2023-04-07T04:27:37.910Z,221.22
2023-04-07T04:28:39.064Z,223.27
2023-04-07T04:29:37.975Z,222.37
2023-04-07T04:30:38.021Z,225.00
2023-04-07T04:31:38.068Z,228.57
2023-04-07T04:32:38.109Z,232.38
2023-04-07T04:33:38.112Z,230.32
2023-04-07T04:34:38.153Z,229.19
2023-04-07T04:35:38.206Z,228.34
2023-04-07T04:36:38.501Z,228.20
2023-04-07T04:37:38.249Z,230.25
2023-04-07T04:38:38.282Z,228.09
2023-04-07T04:39:38.289Z,224.63
2023-04-07T04:40:38.354Z,225.25
2023-04-07T04:41:38.371Z,226.19
2023-04-07T04:42:38.392Z,226.28
2023-04-07T04:43:38.405Z,224.85
2023-04-07T04:44:38.457Z,224.78
2023-04-07T04:45:38.488Z,226.26
2023-04-07T04:46:38.588Z,223.66
2023-04-07T04:47:38.661Z,221.98
2023-04-07T04:48:38.611Z,222.51
2023-04-07T04:49:38.653Z,220.55
2023-04-07T04:50:38.675Z,218.56
2023-04-07T04:51:38.725Z,214.13
2023-04-07T04:52:38.778Z,214.61
2023-04-07T04:53:38.793Z,217.36
2023-04-07T04:54:38.833Z,218.13
2023-04-07T04:55:38.873Z,219.60
2023-04-07T04:56:38.908Z,219.11
2023-04-07T04:57:38.909Z,218.42
2023-04-07T04:58:38.961Z,215.72
2023-04-07T04:59:39.001Z,217.60
2023-04-07T05:00:39.058Z,221.80
2023-04-07T05:01:39.273Z,221.81
2023-04-07T05:02:39.162Z,222.14
2023-04-07T05:03:39.323Z,225.88
2023-04-07T05:04:39.202Z,229.18
2023-04-07T05:05:39.225Z,230.73
2023-04-07T05:06:39.201Z,230.85
2023-04-07T05:07:39.195Z,231.13
2023-04-07T05:08:39.250Z,232.18
2023-04-07T05:09:39.318Z,233.99
2023-04-07T05:10:39.363Z,234.68
2023-04-07T05:11:39.302Z,234.00
2023-04-07T05:12:39.350Z,234.84
2023-04-07T05:13:39.360Z,238.20
2023-04-07T05:14:39.419Z,240.53
2023-04-07T05:15:39.440Z,244.90
2023-04-07T05:16:39.576Z,247.87
2023-04-07T05:17:39.567Z,249.77
2023-04-07T05:18:39.565Z,250.41
2023-04-07T05:19:39.596Z,250.17
2023-04-07T05:20:39.673Z,250.00
2023-04-07T05:21:39.711Z,250.00
2023-04-07T05:22:39.736Z,250.00
2023-04-07T05:23:39.758Z,249.24
2023-04-07T05:24:39.805Z,249.81
2023-04-07T05:25:39.876Z,247.16
2023-04-07T05:26:39.885Z,246.80
2023-04-07T05:27:39.955Z,245.89
2023-04-07T05:28:39.978Z,246.84
2023-04-07T05:29:40.010Z,246.93
2023-04-07T05:30:40.073Z,248.04
2023-04-07T05:31:40.194Z,247.42
2023-04-07T05:32:40.177Z,249.59
2023-04-07T05:33:40.147Z,247.13
2023-04-07T05:34:40.191Z,243.56
2023-04-07T05:35:40.296Z,241.48
2023-04-07T05:36:40.252Z,238.65
2023-04-07T05:37:40.311Z,234.75
2023-04-07T05:38:40.303Z,234.43
2023-04-07T05:39:40.365Z,234.28
2023-04-07T05:40:40.447Z,235.47
2023-04-07T05:41:40.446Z,236.30
2023-04-07T05:42:40.475Z,236.51
2023-04-07T05:43:40.515Z,235.91
2023-04-07T05:44:40.541Z,235.08
2023-04-07T05:45:40.635Z,235.15
2023-04-07T05:46:40.613Z,237.04
2023-04-07T05:47:40.714Z,239.08
2023-04-07T05:48:40.698Z,242.35
2023-04-07T05:49:40.697Z,239.88
2023-04-07T05:50:40.774Z,235.86
2023-04-07T05:51:40.798Z,235.21
2023-04-07T05:52:40.841Z,233.85
2023-04-07T05:53:40.864Z,231.76
2023-04-07T05:54:40.915Z,231.10
2023-04-07T05:55:40.954Z,230.82
2023-04-07T05:56:41.004Z,233.99
2023-04-07T05:57:41.023Z,234.07
2023-04-07T05:58:41.063Z,234.21
2023-04-07T05:59:41.098Z,235.48
2023-04-07T06:00:41.154Z,234.23
2023-04-07T06:01:41.220Z,235.86
2023-04-07T06:02:41.299Z,234.96
2023-04-07T06:03:41.438Z,235.09
2023-04-07T06:04:41.224Z,242.33
2023-04-07T06:05:41.319Z,248.12
2023-04-07T06:06:41.261Z,248.14
2023-04-07T06:07:41.292Z,245.16
2023-04-07T06:08:41.362Z,241.19
2023-04-07T06:09:41.328Z,236.81
2023-04-07T06:10:41.351Z,236.59
2023-04-07T06:11:41.339Z,236.20
2023-04-07T06:12:41.376Z,236.29
2023-04-07T06:13:41.387Z,237.23
2023-04-07T06:14:41.439Z,235.87
2023-04-07T06:15:41.465Z,235.12
2023-04-07T06:16:41.512Z,235.28
2023-04-07T06:17:41.572Z,235.19
2023-04-07T06:18:41.567Z,235.58
2023-04-07T06:19:41.604Z,236.54
2023-04-07T06:20:41.665Z,237.40
2023-04-07T06:21:41.702Z,235.51
2023-04-07T06:22:41.731Z,233.74
2023-04-07T06:23:41.775Z,233.09
2023-04-07T06:24:41.821Z,232.97
2023-04-07T06:25:41.861Z,233.81
2023-04-07T06:26:41.859Z,233.91
2023-04-07T06:27:41.866Z,232.96
2023-04-07T06:28:41.915Z,232.37
2023-04-07T06:29:41.939Z,233.62
2023-04-07T06:30:42.010Z,237.27
2023-04-07T06:31:42.009Z,241.69
2023-04-07T06:32:42.083Z,243.91
2023-04-07T06:33:42.063Z,246.55
2023-04-07T06:34:42.099Z,250.00
2023-04-07T06:35:42.135Z,250.00
2023-04-07T06:36:42.167Z,247.92
2023-04-07T06:37:42.189Z,243.26
2023-04-07T06:38:42.233Z,236.17
2023-04-07T06:39:42.256Z,228.62
2023-04-07T06:40:42.304Z,224.56
2023-04-07T06:41:42.314Z,225.70
2023-04-07T06:42:42.368Z,224.52
2023-04-07T06:43:42.392Z,223.48
2023-04-07T06:44:42.466Z,225.33
2023-04-07T06:45:42.504Z,225.46
2023-04-07T06:46:42.617Z,223.36
2023-04-07T06:47:42.619Z,222.06
2023-04-07T06:48:42.579Z,221.50
2023-04-07T06:49:42.627Z,221.71
2023-04-07T06:50:42.664Z,223.40
2023-04-07T06:51:42.685Z,226.07
2023-04-07T06:52:42.725Z,223.71
2023-04-07T06:53:42.749Z,225.30
2023-04-07T06:54:42.779Z,222.60
2023-04-07T06:55:42.842Z,220.37
2023-04-07T06:56:42.894Z,219.78
2023-04-07T06:57:42.884Z,219.69
2023-04-07T06:58:42.922Z,220.35
2023-04-07T06:59:42.919Z,229.93
2023-04-07T07:00:43.012Z,235.76
2023-04-07T07:01:43.048Z,238.80
2023-04-07T07:02:43.133Z,236.84
2023-04-07T07:03:43.157Z,231.56
2023-04-07T07:04:43.075Z,226.99
2023-04-07T07:05:43.121Z,225.64
2023-04-07T07:06:43.103Z,225.75
2023-04-07T07:07:43.145Z,224.13
2023-04-07T07:08:43.163Z,228.13
2023-04-07T07:09:43.160Z,234.36
2023-04-07T07:10:43.194Z,235.73
2023-04-07T07:11:43.215Z,230.90
2023-04-07T07:12:43.183Z,222.95
2023-04-07T07:13:43.212Z,225.27
2023-04-07T07:14:43.226Z,225.15
2023-04-07T07:15:43.361Z,226.97
2023-04-07T07:16:43.324Z,230.08
2023-04-07T07:17:43.315Z,230.73
2023-04-07T07:18:43.333Z,229.56
2023-04-07T07:19:43.373Z,225.10
2023-04-07T07:20:43.404Z,220.85
2023-04-07T07:21:43.434Z,224.82
2023-04-07T07:22:43.485Z,229.73
2023-04-07T07:23:43.751Z,227.75
2023-04-07T07:24:43.569Z,228.97
2023-04-07T07:25:43.598Z,228.55
2023-04-07T07:26:44.706Z,230.65
2023-04-07T07:27:43.712Z,228.85
2023-04-07T07:28:43.758Z,230.31
2023-04-07T07:29:43.781Z,228.69
2023-04-07T07:30:43.899Z,232.06
2023-04-07T07:31:43.912Z,233.74
2023-04-07T07:32:43.904Z,234.41
2023-04-07T07:33:44.028Z,236.51
2023-04-07T07:34:43.967Z,242.25
2023-04-07T07:35:44.056Z,246.56
2023-04-07T07:36:44.017Z,248.96
2023-04-07T07:37:44.046Z,249.46
2023-04-07T07:38:44.255Z,250.00
2023-04-07T07:39:44.124Z,249.91
2023-04-07T07:40:44.195Z,249.98
2023-04-07T07:41:44.192Z,249.91
2023-04-07T07:42:44.225Z,250.00
2023-04-07T07:43:44.243Z,248.32
2023-04-07T07:44:44.269Z,248.39
2023-04-07T07:45:44.269Z,247.18
2023-04-07T07:46:44.321Z,242.42
2023-04-07T07:47:44.345Z,239.65
2023-04-07T07:48:44.311Z,235.47
2023-04-07T07:49:44.285Z,232.24
2023-04-07T07:50:44.330Z,229.09
2023-04-07T07:51:44.312Z,226.51
2023-04-07T07:52:44.463Z,225.89
2023-04-07T07:53:44.450Z,224.94
2023-04-07T07:54:44.461Z,227.81
2023-04-07T07:55:44.516Z,229.39
2023-04-07T07:56:44.532Z,230.49
2023-04-07T07:57:44.573Z,232.03
2023-04-07T07:58:44.646Z,231.76
2023-04-07T07:59:44.634Z,232.77
2023-04-07T08:00:44.716Z,236.29
2023-04-07T08:01:44.784Z,236.22
2023-04-07T08:02:45.419Z,236.07
2023-04-07T08:03:44.907Z,236.36
2023-04-07T08:04:44.955Z,236.09
2023-04-07T08:05:44.916Z,235.51
2023-04-07T08:06:44.936Z,234.37
2023-04-07T08:07:44.973Z,235.10
2023-04-07T08:08:45.004Z,235.34
2023-04-07T08:09:45.007Z,235.94
2023-04-07T08:10:45.055Z,234.49
2023-04-07T08:11:45.069Z,231.50
2023-04-07T08:12:45.116Z,231.31
2023-04-07T08:13:45.266Z,227.94
2023-04-07T08:14:45.209Z,226.34
2023-04-07T08:15:45.291Z,223.77
2023-04-07T08:16:45.285Z,223.14
2023-04-07T08:17:45.278Z,222.80
2023-04-07T08:18:45.449Z,220.39
2023-04-07T08:19:45.327Z,217.06
2023-04-07T08:20:45.389Z,213.88
2023-04-07T08:21:45.387Z,210.21
2023-04-07T08:22:45.423Z,208.36
2023-04-07T08:23:45.521Z,206.31
2023-04-07T08:24:45.483Z,206.21
2023-04-07T08:25:45.529Z,205.11
2023-04-07T08:26:45.617Z,205.67
2023-04-07T08:27:45.603Z,204.49
2023-04-07T08:28:45.648Z,204.94
2023-04-07T08:29:45.650Z,205.82
2023-04-07T08:30:45.692Z,204.89
2023-04-07T08:31:45.787Z,203.76
2023-04-07T08:32:45.833Z,204.44
2023-04-07T08:33:46.111Z,205.97
2023-04-07T08:34:45.881Z,206.28
2023-04-07T08:35:45.945Z,205.66
2023-04-07T08:36:45.961Z,204.02
2023-04-07T08:37:45.973Z,203.99
2023-04-07T08:38:46.006Z,201.39
2023-04-07T08:39:46.060Z,198.78
2023-04-07T08:40:46.120Z,197.11
2023-04-07T08:41:46.146Z,199.77
2023-04-07T08:42:46.173Z,197.68
2023-04-07T08:43:46.350Z,196.44
2023-04-07T08:44:46.212Z,196.68
2023-04-07T08:45:46.285Z,195.98
2023-04-07T08:46:46.292Z,196.34
2023-04-07T08:47:46.372Z,194.98
2023-04-07T08:48:46.328Z,194.85
2023-04-07T08:49:46.375Z,195.41
2023-04-07T08:50:46.440Z,195.63
2023-04-07T08:51:46.438Z,197.59
2023-04-07T08:52:46.550Z,202.14
2023-04-07T08:53:46.695Z,198.04
2023-04-07T08:54:46.561Z,196.92
2023-04-07T08:55:46.645Z,193.01
2023-04-07T08:56:46.657Z,189.61
2023-04-07T08:57:46.687Z,184.47
2023-04-07T08:58:46.724Z,180.24
2023-04-07T08:59:46.777Z,179.45
2023-04-07T09:00:46.867Z,175.07
2023-04-07T09:01:46.940Z,174.11
2023-04-07T09:02:46.941Z,171.10
2023-04-07T09:03:47.294Z,169.43
2023-04-07T09:04:47.015Z,167.53
2023-04-07T09:05:47.094Z,165.74
2023-04-07T09:06:47.069Z,164.74
2023-04-07T09:07:47.105Z,164.60
2023-04-07T09:08:47.149Z,163.92
2023-04-07T09:09:47.206Z,161.22
2023-04-07T09:10:47.256Z,161.02
2023-04-07T09:11:47.281Z,158.97
2023-04-07T09:12:47.335Z,157.08
2023-04-07T09:13:47.558Z,157.18
2023-04-07T09:14:47.402Z,159.10
2023-04-07T09:15:47.440Z,154.63
2023-04-07T09:16:47.484Z,156.02
2023-04-07T09:17:47.533Z,153.90
2023-04-07T09:18:47.540Z,154.99
2023-04-07T09:19:47.580Z,152.86
2023-04-07T09:20:47.634Z,153.34
2023-04-07T09:21:47.682Z,157.18
2023-04-07T09:22:47.729Z,152.49
2023-04-07T09:23:48.168Z,151.25
2023-04-07T09:24:47.792Z,152.69
2023-04-07T09:25:47.827Z,152.49
2023-04-07T09:26:47.826Z,150.08
2023-04-07T09:27:47.848Z,148.57
2023-04-07T09:28:47.904Z,151.96
2023-04-07T09:29:47.929Z,151.76
2023-04-07T09:30:47.956Z,150.80
2023-04-07T09:31:47.994Z,145.76
2023-04-07T09:32:48.050Z,148.54
2023-04-07T09:33:48.202Z,153.65
2023-04-07T09:34:48.008Z,152.71
2023-04-07T09:35:48.020Z,151.00
2023-04-07T09:36:48.061Z,150.03
2023-04-07T09:37:48.089Z,156.03
2023-04-07T09:38:48.117Z,156.25
2023-04-07T09:39:48.189Z,156.54
2023-04-07T09:40:48.277Z,159.59
2023-04-07T09:41:48.333Z,154.79
2023-04-07T09:42:48.424Z,159.03
2023-04-07T09:43:48.562Z,171.07
2023-04-07T09:44:48.455Z,169.41
2023-04-07T09:45:48.501Z,168.90
2023-04-07T09:46:48.470Z,161.39
2023-04-07T09:47:48.518Z,163.88
2023-04-07T09:48:48.487Z,159.49
2023-04-07T09:49:48.531Z,169.08
2023-04-07T09:50:48.527Z,167.61
2023-04-07T09:51:48.591Z,172.27
2023-04-07T09:52:48.610Z,170.60
2023-04-07T09:53:49.064Z,164.81
2023-04-07T09:54:48.636Z,163.47
2023-04-07T09:55:48.731Z,162.92
2023-04-07T09:56:50.626Z,164.69
2023-04-07T09:57:48.758Z,166.66
2023-04-07T09:58:48.764Z,167.63
2023-04-07T09:59:48.804Z,169.59
2023-04-07T10:00:48.777Z,171.50
2023-04-07T10:01:48.870Z,173.97
2023-04-07T10:02:48.893Z,172.69
2023-04-07T10:03:49.080Z,173.34
2023-04-07T10:04:48.908Z,171.28
2023-04-07T10:05:48.973Z,172.98
2023-04-07T10:06:49.034Z,171.35
2023-04-07T10:07:49.116Z,173.49
2023-04-07T10:08:49.220Z,172.52
2023-04-07T10:09:49.172Z,169.01
2023-04-07T10:10:49.216Z,176.02
2023-04-07T10:11:49.345Z,169.55
2023-04-07T10:12:49.254Z,168.90
2023-04-07T10:13:49.677Z,168.30
2023-04-07T10:14:49.301Z,169.63
2023-04-07T10:15:49.272Z,171.25
2023-04-07T10:16:49.333Z,173.76
2023-04-07T10:17:49.387Z,166.52
2023-04-07T10:18:49.323Z,169.42
2023-04-07T10:19:49.347Z,163.04
2023-04-07T10:20:49.342Z,165.13
2023-04-07T10:21:49.383Z,168.04
2023-04-07T10:22:49.431Z,169.65
2023-04-07T10:23:50.171Z,175.09
2023-04-07T10:24:49.495Z,170.61
2023-04-07T10:25:49.486Z,171.94
2023-04-07T10:26:49.498Z,169.87
2023-04-07T10:27:49.517Z,165.44
2023-04-07T10:28:49.548Z,169.34
2023-04-07T10:29:49.604Z,167.16
2023-04-07T10:30:49.638Z,164.85
2023-04-07T10:31:49.693Z,171.10
2023-04-07T10:32:49.766Z,173.90
2023-04-07T10:33:50.015Z,177.21
2023-04-07T10:34:49.812Z,178.28
2023-04-07T10:35:49.933Z,181.78
2023-04-07T10:36:49.914Z,179.07
2023-04-07T10:37:50.231Z,177.64
2023-04-07T10:38:49.994Z,175.91
2023-04-07T10:39:50.049Z,174.41
2023-04-07T10:40:50.096Z,177.27
2023-04-07T10:41:50.160Z,177.50
2023-04-07T10:42:50.204Z,178.74
2023-04-07T10:43:50.547Z,183.21
2023-04-07T10:44:50.208Z,179.62
2023-04-07T10:45:50.279Z,181.38
2023-04-07T10:46:50.249Z,180.49
2023-04-07T10:47:50.259Z,179.01
2023-04-07T10:48:50.260Z,180.93
2023-04-07T10:49:50.260Z,182.59
2023-04-07T10:50:50.290Z,185.12
2023-04-07T10:51:50.305Z,182.42
2023-04-07T10:52:50.318Z,184.53
2023-04-07T10:53:50.422Z,180.42
2023-04-07T10:54:50.350Z,177.56
2023-04-07T10:55:50.406Z,179.66
2023-04-07T10:56:50.436Z,177.96
2023-04-07T10:57:50.478Z,179.73
2023-04-07T10:58:50.528Z,179.41
2023-04-07T10:59:50.508Z,178.66
2023-04-07T11:00:50.540Z,175.37
2023-04-07T11:01:50.668Z,173.73
2023-04-07T11:02:50.731Z,169.33
2023-04-07T11:03:50.811Z,168.77
2023-04-07T11:04:50.802Z,168.80
2023-04-07T11:05:50.749Z,167.91
2023-04-07T11:06:50.789Z,166.31
2023-04-07T11:07:50.827Z,168.65
2023-04-07T11:08:50.830Z,169.80
2023-04-07T11:09:50.857Z,166.17
2023-04-07T11:10:50.896Z,172.77
2023-04-07T11:11:50.898Z,173.35
2023-04-07T11:12:50.917Z,175.02
2023-04-07T11:13:51.130Z,168.73
2023-04-07T11:14:50.924Z,173.71
2023-04-07T11:15:50.988Z,171.81
2023-04-07T11:16:51.016Z,170.33
2023-04-07T11:17:51.104Z,175.68
2023-04-07T11:18:51.142Z,181.84
2023-04-07T11:19:51.157Z,179.52
2023-04-07T11:20:51.177Z,184.32
2023-04-07T11:21:51.208Z,180.97
2023-04-07T11:22:51.230Z,177.02
2023-04-07T11:23:51.495Z,172.45
2023-04-07T11:24:51.304Z,167.92
2023-04-07T11:25:51.343Z,159.92
2023-04-07T11:26:51.371Z,162.21
2023-04-07T11:27:51.405Z,162.79
2023-04-07T11:28:51.454Z,164.33
2023-04-07T11:29:51.487Z,165.88
2023-04-07T11:30:51.609Z,170.11
2023-04-07T11:31:51.654Z,167.01
2023-04-07T11:32:51.627Z,167.38
2023-04-07T11:33:51.593Z,164.47
2023-04-07T11:34:51.607Z,161.53
2023-04-07T11:35:51.670Z,161.74
2023-04-07T11:36:51.669Z,164.06
2023-04-07T11:37:51.696Z,162.76
2023-04-07T11:38:51.741Z,158.96
2023-04-07T11:39:51.762Z,159.99
2023-04-07T11:40:51.773Z,154.95
2023-04-07T11:41:51.828Z,151.26
2023-04-07T11:42:51.899Z,154.27
2023-04-07T11:43:51.945Z,146.06
2023-04-07T11:44:52.006Z,148.36
2023-04-07T11:45:52.011Z,136.14
2023-04-07T11:46:52.109Z,137.69
2023-04-07T11:47:52.063Z,136.80
2023-04-07T11:48:52.089Z,141.13
2023-04-07T11:49:52.142Z,137.89
2023-04-07T11:50:52.226Z,138.06
2023-04-07T11:51:52.236Z,148.08
2023-04-07T11:52:52.288Z,154.96
2023-04-07T11:53:52.352Z,154.31
2023-04-07T11:54:52.426Z,149.19
2023-04-07T11:55:52.451Z,136.71
2023-04-07T11:56:52.444Z,131.13
2023-04-07T11:57:52.450Z,140.13
2023-04-07T11:58:52.455Z,143.37
2023-04-07T11:59:52.483Z,139.47
2023-04-07T12:00:52.494Z,145.11
2023-04-07T12:01:55.285Z,147.42
2023-04-07T12:02:52.660Z,147.47
2023-04-07T12:03:53.269Z,145.19
2023-04-07T12:04:52.532Z,147.51
2023-04-07T12:05:52.452Z,149.18
2023-04-07T12:06:52.419Z,153.75
2023-04-07T12:07:52.414Z,153.71
2023-04-07T12:08:52.414Z,153.36
2023-04-07T12:09:52.402Z,155.54
2023-04-07T12:10:52.382Z,161.37
2023-04-07T12:11:52.403Z,162.63
2023-04-07T12:12:52.370Z,162.84
2023-04-07T12:13:52.373Z,155.63
2023-04-07T12:14:52.376Z,153.93
2023-04-07T12:15:52.428Z,156.36
2023-04-07T12:16:52.469Z,153.49
2023-04-07T12:17:52.372Z,152.84
2023-04-07T12:18:52.346Z,153.75
2023-04-07T12:19:52.334Z,164.44
2023-04-07T12:20:52.341Z,159.11
2023-04-07T12:21:52.384Z,158.81
2023-04-07T12:22:52.294Z,161.37
2023-04-07T12:23:52.301Z,152.39
2023-04-07T12:24:52.325Z,147.77
2023-04-07T12:25:52.401Z,150.74
2023-04-07T12:26:52.357Z,152.95
2023-04-07T12:27:52.366Z,156.56
2023-04-07T12:28:52.370Z,150.36